createdAt,value
2019-03-02T00:02:09.547Z,2.55
2019-03-02T00:04:58.577Z,4.97
2019-03-02T00:07:48.822Z,3.55
2019-03-02T00:10:40.588Z,2.55
2019-03-02T00:13:29.364Z,6.95
2019-03-02T00:16:18.970Z,2.90
2019-03-02T00:19:08.070Z,2.90
2019-03-02T00:21:57.714Z,2.80
2019-03-02T00:24:46.954Z,4.72
2019-03-02T00:27:36.615Z,11.97
2019-03-02T00:30:25.630Z,6.47
2019-03-02T00:33:16.631Z,4.40
2019-03-02T00:36:05.465Z,3.10
2019-03-02T00:38:54.966Z,3.15
2019-03-02T00:41:44.393Z,2.47
2019-03-02T00:44:35.722Z,3.25
2019-03-02T00:47:24.817Z,3.87
2019-03-02T00:50:14.054Z,2.10
2019-03-02T00:53:03.361Z,3.30
2019-03-02T00:55:53.089Z,5.33
2019-03-02T00:58:42.103Z,2.80
2019-03-02T01:01:31.038Z,6.25
2019-03-02T01:04:22.769Z,2.35
2019-03-02T01:07:11.606Z,2.80
2019-03-02T01:10:00.995Z,3.33
2019-03-02T01:12:50.157Z,3.83
2019-03-02T01:15:40.704Z,4.00
2019-03-02T01:18:30.376Z,2.45
2019-03-02T01:21:19.841Z,2.65
2019-03-02T01:24:09.109Z,3.75
2019-03-02T01:26:59.489Z,4.12
2019-03-02T01:29:51.665Z,3.60
2019-03-02T01:32:40.093Z,2.40
2019-03-02T01:35:29.361Z,2.52
2019-03-02T01:38:19.476Z,2.52
2019-03-02T01:41:08.921Z,2.55
2019-03-02T01:43:58.196Z,3.00
2019-03-02T01:46:47.874Z,3.83
2019-03-02T01:49:37.750Z,3.40
2019-03-02T01:52:30.712Z,3.37
2019-03-02T01:55:18.076Z,2.75
2019-03-02T01:58:07.718Z,4.62
2019-03-02T02:00:56.721Z,3.37
2019-03-02T02:03:47.047Z,4.12
2019-03-02T02:06:39.840Z,2.60
2019-03-02T02:09:28.283Z,3.05
2019-03-02T02:12:17.032Z,4.20
2019-03-02T02:15:10.321Z,3.25
2019-03-02T02:18:02.332Z,2.77
2019-03-02T02:20:51.662Z,2.90
2019-03-02T02:23:41.491Z,4.00
2019-03-02T02:26:30.459Z,3.75
2019-03-02T02:29:19.720Z,3.00
2019-03-02T02:32:08.783Z,2.87
2019-03-02T02:35:01.010Z,3.22
2019-03-02T02:37:48.320Z,3.22
2019-03-02T02:40:37.719Z,3.05
2019-03-02T02:43:26.465Z,2.60
2019-03-02T02:46:15.965Z,4.35
2019-03-02T02:49:05.589Z,3.33
2019-03-02T02:51:55.920Z,3.90
2019-03-02T02:54:44.956Z,2.17
2019-03-02T02:57:38.335Z,3.90
2019-03-02T03:00:27.072Z,3.52
2019-03-02T03:03:20.697Z,3.95
2019-03-02T03:06:07.185Z,3.08
2019-03-02T03:08:56.683Z,3.12
2019-03-02T03:11:45.750Z,2.90
2019-03-02T03:14:35.465Z,3.98
2019-03-02T03:17:28.093Z,3.00
2019-03-02T03:20:14.618Z,2.90
2019-03-02T03:23:03.844Z,4.45
2019-03-02T03:25:57.117Z,3.30
2019-03-02T03:28:43.331Z,3.60
2019-03-02T03:31:32.192Z,3.15
2019-03-02T03:34:28.857Z,3.22
2019-03-02T03:37:13.288Z,2.98
2019-03-02T03:40:03.697Z,3.15
2019-03-02T03:42:52.708Z,3.52
2019-03-02T03:45:43.399Z,3.90
2019-03-02T03:48:32.567Z,3.20
2019-03-02T03:51:21.282Z,3.22
2019-03-02T03:54:10.005Z,3.40
2019-03-02T03:56:59.129Z,3.35
2019-03-02T03:59:48.318Z,3.65
2019-03-02T04:02:37.756Z,2.33
2019-03-02T04:05:27.179Z,3.05
2019-03-02T04:08:16.736Z,2.80
2019-03-02T04:11:05.985Z,2.50
2019-03-02T04:13:55.446Z,2.80
2019-03-02T04:16:45.900Z,2.72
2019-03-02T04:19:36.244Z,2.60
2019-03-02T04:22:25.017Z,2.50
2019-03-02T04:25:17.845Z,2.70
2019-03-02T04:28:05.491Z,2.52
2019-03-02T04:30:56.388Z,3.27
2019-03-02T04:33:45.847Z,3.20
2019-03-02T04:36:34.770Z,2.30
2019-03-02T04:39:23.835Z,2.83
2019-03-02T04:42:14.573Z,2.42
2019-03-02T04:45:05.130Z,2.37
2019-03-02T04:47:55.319Z,2.37
2019-03-02T04:50:44.585Z,3.00
2019-03-02T04:53:34.067Z,2.42
2019-03-02T04:56:24.135Z,2.50
2019-03-02T04:59:13.648Z,2.22
2019-03-02T05:02:02.689Z,2.30
2019-03-02T05:04:51.996Z,2.98
2019-03-02T05:07:41.230Z,2.90
2019-03-02T05:10:29.880Z,2.20
2019-03-02T05:13:18.953Z,2.55
2019-03-02T05:16:07.692Z,2.83
2019-03-02T05:18:56.976Z,2.33
2019-03-02T05:21:46.294Z,2.83
2019-03-02T05:24:35.716Z,2.72
2019-03-02T05:27:25.191Z,2.70
2019-03-02T05:30:16.333Z,2.50
2019-03-02T05:33:05.577Z,2.60
2019-03-02T05:35:54.685Z,2.72
2019-03-02T05:38:43.403Z,2.40
2019-03-02T05:41:35.712Z,2.22
2019-03-02T05:44:23.256Z,2.25
2019-03-02T05:47:12.744Z,2.00
2019-03-02T05:50:02.317Z,2.27
2019-03-02T05:52:54.292Z,2.55
2019-03-02T05:55:42.797Z,2.10
2019-03-02T05:58:32.234Z,1.90
2019-03-02T06:01:21.860Z,2.90
2019-03-02T06:04:11.497Z,2.60
2019-03-02T06:07:01.007Z,2.00
2019-03-02T06:09:51.095Z,3.00
2019-03-02T06:12:40.333Z,2.40
2019-03-02T06:15:29.531Z,2.70
2019-03-02T06:18:18.913Z,2.45
2019-03-02T06:21:10.780Z,2.22
2019-03-02T06:24:01.605Z,2.05
2019-03-02T06:26:50.188Z,2.52
2019-03-02T06:29:39.398Z,2.65
2019-03-02T06:32:30.216Z,2.10
2019-03-02T06:35:19.856Z,2.30
2019-03-02T06:38:09.107Z,2.55
2019-03-02T06:40:58.043Z,2.30
2019-03-02T06:43:48.689Z,1.70
2019-03-02T06:46:37.578Z,2.02
2019-03-02T06:49:26.903Z,2.25
2019-03-02T06:52:18.868Z,2.40
2019-03-02T06:55:09.031Z,2.22
2019-03-02T06:57:58.404Z,2.62
2019-03-02T07:00:48.890Z,2.50
2019-03-02T07:03:38.073Z,2.50
2019-03-02T07:06:26.939Z,2.35
2019-03-02T07:09:16.201Z,2.50
2019-03-02T07:12:05.969Z,2.30
2019-03-02T07:14:55.988Z,2.55
2019-03-02T07:17:46.802Z,2.40
2019-03-02T07:20:46.475Z,2.33
2019-03-02T07:23:35.644Z,2.30
2019-03-02T07:26:24.333Z,2.45
2019-03-02T07:29:13.902Z,2.10
2019-03-02T07:32:04.604Z,2.50
2019-03-02T07:34:54.081Z,2.30
2019-03-02T07:37:44.157Z,2.72
2019-03-02T07:40:33.927Z,2.62
2019-03-02T07:43:23.849Z,2.08
2019-03-02T07:46:13.494Z,2.40
2019-03-02T07:49:02.143Z,2.70
2019-03-02T07:51:50.972Z,2.77
2019-03-02T07:54:42.575Z,2.50
2019-03-02T07:57:30.745Z,2.63
2019-03-02T08:00:22.950Z,2.55
2019-03-02T08:03:11.964Z,2.22
2019-03-02T08:06:01.347Z,3.27
2019-03-02T08:08:51.023Z,2.40
2019-03-02T08:11:40.157Z,2.98
2019-03-02T08:14:28.744Z,2.05
2019-03-02T08:17:17.688Z,3.47
2019-03-02T08:20:11.708Z,2.45
2019-03-02T08:23:00.209Z,2.35
2019-03-02T08:25:49.707Z,2.75
2019-03-02T08:28:42.072Z,2.00
2019-03-02T08:31:29.685Z,2.40
2019-03-02T08:34:21.795Z,2.30
2019-03-02T08:37:10.880Z,2.70
2019-03-02T08:40:02.008Z,2.35
2019-03-02T08:42:51.080Z,2.60
2019-03-02T08:45:40.337Z,2.10
2019-03-02T08:48:29.815Z,2.50
2019-03-02T08:51:19.379Z,2.23
2019-03-02T08:54:08.757Z,2.30
2019-03-02T08:56:57.532Z,2.42
2019-03-02T08:59:46.479Z,2.35
2019-03-02T09:02:35.945Z,2.72
2019-03-02T09:05:42.775Z,2.10
2019-03-02T09:08:15.787Z,2.42
2019-03-02T09:11:05.395Z,2.50
2019-03-02T09:13:54.394Z,2.92
2019-03-02T09:16:44.055Z,2.50
2019-03-02T09:19:32.979Z,3.60
2019-03-02T09:22:24.242Z,2.67
2019-03-02T09:25:20.171Z,2.95
2019-03-02T09:28:09.697Z,2.80
2019-03-02T09:31:02.103Z,2.35
2019-03-02T09:33:49.797Z,2.52
2019-03-02T09:36:39.145Z,2.42
2019-03-02T09:39:31.758Z,2.58
2019-03-02T09:42:18.707Z,2.70
2019-03-02T09:45:12.734Z,2.80
2019-03-02T09:48:02.544Z,1.80
2019-03-02T10:13:21.673Z,2.35
2019-03-02T10:16:11.309Z,2.20
2019-03-02T10:24:39.644Z,2.20
2019-03-02T10:27:29.386Z,2.33
2019-03-02T10:30:22.129Z,2.00
2019-03-02T10:33:11.557Z,2.70
2019-03-02T10:36:00.890Z,2.47
2019-03-02T10:38:51.849Z,2.80
2019-03-02T11:10:22.455Z,2.50
2019-03-02T11:13:28.970Z,2.35
2019-03-02T11:16:34.498Z,2.10
2019-03-02T11:19:43.864Z,2.27
2019-03-02T11:22:38.749Z,2.42
2019-03-02T11:25:34.184Z,2.35
2019-03-02T11:28:27.398Z,2.10
2019-03-02T16:29:44.238Z,9.20
2019-03-02T16:44:09.996Z,7.77
2019-03-02T16:47:18.451Z,9.35
2019-03-02T16:50:18.651Z,10.60
2019-03-02T16:53:09.713Z,8.40
2019-03-02T16:56:03.509Z,7.83
2019-03-02T16:58:57.050Z,9.03
2019-03-02T17:01:54.241Z,6.37
2019-03-02T17:04:42.906Z,6.20
2019-03-02T17:07:32.380Z,7.35
2019-03-02T17:10:28.858Z,13.93
2019-03-02T17:13:22.343Z,8.73
2019-03-02T17:16:22.193Z,7.20
2019-03-02T17:19:13.015Z,14.40
2019-03-02T17:22:03.925Z,8.90
2019-03-02T17:24:54.465Z,7.50
2019-03-02T17:27:58.380Z,9.18
2019-03-02T17:30:51.829Z,17.57
2019-03-02T17:33:42.439Z,7.08
2019-03-02T17:36:48.235Z,7.60
2019-03-02T17:39:39.428Z,8.90
2019-03-02T17:42:45.838Z,9.73
2019-03-02T17:45:36.620Z,9.85
2019-03-02T17:48:27.731Z,8.30
2019-03-02T17:51:26.819Z,7.70
2019-03-02T17:54:42.039Z,7.03
2019-03-02T17:57:28.793Z,8.90
2019-03-02T18:00:21.996Z,8.15
2019-03-02T18:03:12.271Z,8.10
2019-03-02T18:06:03.053Z,8.18
2019-03-02T18:08:55.985Z,9.40
2019-03-02T18:11:50.369Z,13.83
2019-03-02T18:14:41.623Z,8.63
2019-03-02T18:17:40.784Z,17.95
2019-03-02T18:20:30.441Z,8.80
2019-03-02T18:23:22.518Z,8.23
2019-03-02T18:26:11.223Z,12.23
2019-03-02T18:29:00.603Z,16.80
2019-03-02T18:31:53.104Z,9.23
2019-03-02T18:34:39.859Z,14.45
2019-03-02T18:37:30.661Z,10.30
2019-03-02T18:40:20.149Z,10.30
2019-03-02T18:43:09.569Z,11.30
2019-03-02T18:45:59.392Z,11.73
2019-03-02T18:49:11.350Z,14.05
2019-03-02T18:52:13.063Z,11.15
2019-03-02T18:55:02.229Z,12.90
2019-03-02T18:57:52.144Z,12.50
2019-03-02T19:00:43.369Z,20.37
2019-03-02T19:03:32.415Z,15.80
2019-03-02T19:06:23.106Z,13.35
2019-03-02T19:09:12.917Z,15.78
2019-03-02T19:12:02.356Z,16.17
2019-03-02T19:14:53.795Z,16.30
2019-03-02T19:17:47.455Z,17.20
2019-03-02T19:20:36.611Z,18.32
2019-03-02T19:23:25.911Z,18.05
2019-03-02T19:26:15.255Z,19.30
2019-03-02T19:29:04.706Z,16.73
2019-03-02T19:31:53.386Z,16.75
2019-03-02T19:34:42.751Z,16.37
2019-03-02T19:37:32.124Z,16.93
2019-03-02T19:40:25.493Z,17.30
2019-03-02T19:43:14.247Z,18.57
2019-03-02T19:46:03.515Z,23.00
2019-03-02T19:48:52.542Z,18.02
2019-03-02T19:51:41.955Z,19.77
2019-03-02T19:54:31.525Z,18.30
2019-03-02T19:57:20.696Z,18.00
2019-03-02T20:00:22.848Z,22.45
2019-03-02T20:03:11.879Z,19.23
2019-03-02T20:06:01.198Z,20.52
2019-03-02T20:08:50.579Z,24.15
2019-03-02T20:11:40.054Z,31.62
2019-03-02T20:14:29.192Z,22.55
2019-03-02T20:17:18.067Z,31.50
2019-03-02T20:20:12.095Z,32.13
2019-03-02T20:23:01.359Z,28.57
2019-03-02T20:25:51.013Z,32.95
2019-03-02T20:28:40.116Z,24.85
2019-03-02T20:31:30.037Z,31.45
2019-03-02T20:34:19.280Z,22.22
2019-03-02T20:37:08.779Z,31.17
2019-03-02T20:39:57.627Z,22.10
2019-03-02T20:42:47.327Z,23.25
2019-03-02T20:45:36.908Z,23.15
2019-03-02T20:48:25.642Z,21.30
2019-03-02T20:51:14.321Z,34.10
2019-03-02T20:54:03.583Z,23.25
2019-03-02T20:56:52.813Z,28.45
2019-03-02T20:59:41.655Z,35.75
2019-03-02T21:02:30.481Z,23.15
2019-03-02T21:05:20.156Z,24.82
2019-03-02T21:08:09.423Z,24.47
2019-03-02T21:10:59.394Z,20.77
2019-03-02T21:13:48.700Z,29.87
2019-03-02T21:16:37.951Z,28.83
2019-03-02T21:19:27.025Z,25.00
2019-03-02T21:22:16.287Z,26.93
2019-03-02T21:25:06.769Z,21.27
2019-03-02T21:27:55.969Z,27.02
2019-03-02T21:30:45.129Z,24.55
2019-03-02T21:33:34.179Z,24.55
2019-03-02T21:36:23.111Z,25.10
2019-03-02T21:39:12.017Z,26.93
2019-03-02T21:42:01.167Z,22.65
2019-03-02T21:44:50.336Z,22.80
2019-03-02T21:47:40.017Z,23.10
2019-03-02T21:50:36.108Z,24.40
2019-03-02T21:53:25.261Z,22.05
2019-03-02T21:56:14.071Z,22.50
2019-03-02T21:59:02.969Z,23.60
2019-03-02T22:01:52.207Z,23.75
2019-03-02T22:04:41.546Z,22.07
2019-03-02T22:07:30.749Z,24.90
2019-03-02T22:10:24.346Z,24.85
2019-03-02T22:13:13.243Z,24.25
2019-03-02T22:16:02.424Z,23.47
2019-03-02T22:18:51.908Z,20.80
2019-03-02T22:21:40.669Z,24.47
2019-03-02T22:24:29.067Z,23.38
2019-03-02T22:27:18.594Z,23.70
2019-03-02T22:30:11.949Z,31.33
2019-03-02T22:33:01.307Z,21.82
2019-03-02T22:35:50.205Z,24.12
2019-03-02T22:38:39.464Z,24.30
2019-03-02T22:41:28.943Z,22.65
2019-03-02T22:44:18.410Z,22.73
2019-03-02T22:47:07.693Z,23.83
2019-03-02T22:49:56.628Z,22.07
2019-03-02T22:52:46.016Z,21.95
2019-03-02T22:55:35.485Z,24.02
2019-03-02T22:58:26.649Z,23.73
2019-03-02T23:01:38.497Z,23.75
2019-03-02T23:04:27.670Z,25.08
2019-03-02T23:07:16.584Z,23.35
2019-03-02T23:10:09.763Z,24.63
2019-03-02T23:12:59.628Z,23.27
2019-03-02T23:15:48.671Z,23.20
2019-03-02T23:18:38.371Z,24.52
2019-03-02T23:21:27.844Z,23.10
2019-03-02T23:24:17.667Z,23.65
2019-03-02T23:27:06.925Z,24.90
2019-03-02T23:29:56.236Z,26.00
2019-03-02T23:32:44.851Z,23.62
2019-03-02T23:35:34.344Z,25.92
2019-03-02T23:38:23.636Z,23.50
2019-03-02T23:41:12.981Z,23.32
2019-03-02T23:44:01.864Z,24.30
2019-03-02T23:46:50.597Z,23.70
2019-03-02T23:49:40.070Z,24.15
2019-03-02T23:52:28.870Z,23.90
2019-03-02T23:55:19.426Z,24.77
2019-03-02T23:58:08.764Z,23.97
